Main page
METAR-TAF:

METAR-TAF

Airports :

Turin Airport

Turin, Italy

latitude: 45-13N, longitude: 007-39E, elevation: 301 m

Current weather observation

The report was made 24 minutes ago, at 18:20 UTC
Wind 2 kt from the Northeast
Temperature 10°C
Humidity 100%
Pressure 1027 hPa
Visibility: 0100 m
fog

METAR: LIMF 141820Z 05002KT 0100 R36/0275N FG VV001 10/10 Q1027

Time: 19:44 (18:44 UTC)

Forecast

The report was made 1 hour and 12 minutes ago, at 17:32 UTC
Forecast valid from 14 at 18 UTC to 15 at 18 UTC
Wind 5 kt from variable directions
Visibility: 2000 m
Broken clouds at a height of 500 ft
mist
Temporary
from 14 at 18 UTC to 15 at 08 UTC
Visibility: 0600 m
Broken clouds at a height of 200 ft
fog
Becoming
from 15 at 08 UTC to 15 at 11 UTC
Visibility: 4000 m
Scattered clouds at a height of 1000 ft

TAF: LIMF 141732Z 1418/1518 VRB05KT 2000 BR BKN005 TEMPO 1418/1508 0600 FG BKN002 BECMG 1508/1511 4000 SCT010

Weather observations and forecasts of more than 4000 airports (METAR and TAF reports).

The available stations are represented by yellow and red dots on the map.

Hover mouse over dot to see the name of the station.

Then click to see weather observations and forecasts.

To change the map : click on the green buttons with a black cross to zoom in, on the green button with a dash to zoom out, or on the green arrows for adjacent maps.


METAR-TAF: